Time;durP1;ratioP1;P1;durP2;ratioP2;P2;SDS_P1;SDS_P2;PMS_P1;PMS_P2;Temp;Humidity;BMP_temperature;BMP_pressure;BME280_temperature;BME280_humidity;BME280_pressure;Samples;Min_cycle;Max_cycle;Signal;HPM_P1;HPM_P2
2022/09/03 00:00:15;;;;;;;;;;;;;;;18.05;43.18;101026.03;5018678;28;19959;-58
2022/09/03 00:02:44;;;;;;;;;;;;;;;18.02;43.45;101029.97;5018711;28;19920;-58
2022/09/03 00:05:15;;;;;;;;;;;;;;;17.98;43.78;101034.16;5022056;28;19944;-56
2022/09/03 00:07:43;;;;;;;;;;;;;;;17.93;43.76;101031.28;5019535;28;20324;-58
2022/09/03 00:10:12;;;;;;;;;;;;;;;17.89;43.78;101030.84;5018386;28;20475;-58
2022/09/03 00:12:39;;;;;;;;;;;;;;;17.87;43.67;101032.13;5018526;28;19920;-57
2022/09/03 00:15:04;;;;;;;;;;;;;;;17.84;43.69;101024.47;5016390;28;19952;-58
2022/09/03 00:17:33;;;;;;;;;;;;;;;17.80;43.92;101025.94;5022509;28;19959;-57
2022/09/03 00:20:07;;;;;;;;;;;;;;;17.77;44.06;101021.84;5020820;28;19917;-57
2022/09/03 00:22:35;;;;;;;;;;;;;;;17.74;44.08;101021.44;5020757;28;19964;-58
2022/09/03 00:25:02;;;;;;;;;;;;;;;17.71;44.13;101032.63;5017569;28;19947;-58
2022/09/03 00:27:30;;;;;;;;;;;;;;;17.69;44.16;101029.31;5018510;28;20008;-58
2022/09/03 00:29:56;;;;;;;;;;;;;;;17.65;44.25;101027.03;5016988;28;20015;-56
2022/09/03 00:32:33;;;;;;;;;;;;;;;17.62;44.33;101027.44;5016684;28;19932;-58
2022/09/03 00:35:01;;;;;;;;;;;;;;;17.60;44.28;101026.81;5015777;28;19955;-58
2022/09/03 00:37:28;;;;;;;;;;;;;;;17.57;44.75;101029.94;5018915;28;19917;-58
2022/09/03 00:39:54;;;;;;;;;;;;;;;17.55;44.72;101026.63;5021784;28;20301;-57
2022/09/03 00:42:20;;;;;;;;;;;;;;;17.53;44.68;101026.00;5026087;28;19944;-58
2022/09/03 00:44:47;;;;;;;;;;;;;;;17.50;44.60;101026.44;5034494;28;20296;-58
2022/09/03 00:47:12;;;;;;;;;;;;;;;17.47;44.72;101031.41;5032706;28;20265;-57
2022/09/03 00:49:59;;;;;;;;;;;;;;;17.45;45.05;101028.94;5027924;28;19971;-58
2022/09/03 00:52:44;;;;;;;;;;;;;;;17.41;45.32;101027.72;5039772;28;19966;-58
2022/09/03 00:55:22;;;;;;;;;;;;;;;17.39;45.56;101027.09;5037096;28;19912;-58
2022/09/03 00:57:47;;;;;;;;;;;;;;;17.37;45.32;101025.66;5040112;28;19956;-58
2022/09/03 01:00:14;;;;;;;;;;;;;;;17.34;45.42;101026.88;5039054;28;19970;-58
2022/09/03 01:02:45;;;;;;;;;;;;;;;17.32;45.52;101028.97;5020115;28;19921;-57
2022/09/03 01:05:21;;;;;;;;;;;;;;;17.30;45.80;101026.50;5035277;28;19997;-57
2022/09/03 01:07:52;;;;;;;;;;;;;;;17.29;45.43;101026.69;5037745;28;19913;-58
2022/09/03 01:10:22;;;;;;;;;;;;;;;17.28;45.46;101020.50;5040395;28;19931;-58
2022/09/03 01:13:14;;;;;;;;;;;;;;;17.27;45.41;101018.03;5040437;28;19916;-58
2022/09/03 01:15:45;;;;;;;;;;;;;;;17.23;45.86;101019.50;5012725;28;19920;-57
2022/09/03 01:18:16;;;;;;;;;;;;;;;17.21;45.50;101022.38;5026013;28;19913;-58
2022/09/03 01:20:41;;;;;;;;;;;;;;;17.17;45.77;101018.47;5031791;28;19927;-56
2022/09/03 01:23:25;;;;;;;;;;;;;;;17.15;46.47;101017.03;5025924;28;19921;-56
2022/09/03 01:26:00;;;;;;;;;;;;;;;17.12;46.32;101023.66;5031426;28;20389;-57
2022/09/03 01:28:37;;;;;;;;;;;;;;;17.11;46.20;101023.88;5032968;28;19917;-58
2022/09/03 01:31:23;;;;;;;;;;;;;;;17.08;46.01;101022.44;5040243;28;19948;-56
2022/09/03 01:34:10;;;;;;;;;;;;;;;17.06;46.15;101023.63;5029876;28;19963;-58
2022/09/03 01:36:44;;;;;;;;;;;;;;;17.03;46.19;101036.44;5036989;28;19913;-58
2022/09/03 01:39:16;;;;;;;;;;;;;;;17.00;46.66;101028.81;5039809;28;19935;-57
2022/09/03 01:44:49;;;;;;;;;;;;;;;16.95;46.32;101027.78;5030511;28;19947;-56
2022/09/03 01:47:25;;;;;;;;;;;;;;;16.91;46.74;101032.75;5031210;28;19974;-57
2022/09/03 01:50:02;;;;;;;;;;;;;;;16.88;46.57;101022.44;5035618;28;19935;-58
2022/09/03 01:53:03;;;;;;;;;;;;;;;16.86;46.93;101018.31;5038805;28;19952;-57
2022/09/03 01:55:32;;;;;;;;;;;;;;;16.82;46.68;101017.09;4967744;28;19997;-57
2022/09/03 01:58:10;;;;;;;;;;;;;;;16.80;46.87;101027.19;5026952;28;19929;-58
2022/09/03 02:00:38;;;;;;;;;;;;;;;16.78;47.06;101021.22;5032580;28;19970;-57
2022/09/03 02:03:05;;;;;;;;;;;;;;;16.75;47.39;101017.06;5029910;28;19920;-58
2022/09/03 02:05:31;;;;;;;;;;;;;;;16.73;47.25;101022.63;5029625;28;19912;-57
2022/09/03 02:07:59;;;;;;;;;;;;;;;16.70;47.27;101020.38;5024783;28;20391;-58
2022/09/03 02:10:29;;;;;;;;;;;;;;;16.67;47.63;101018.09;5037021;28;19924;-58
2022/09/03 02:12:57;;;;;;;;;;;;;;;16.64;47.40;101026.53;5035555;28;20402;-57
2022/09/03 02:15:24;;;;;;;;;;;;;;;16.63;47.27;101014.16;5031174;28;19945;-57
2022/09/03 02:17:53;;;;;;;;;;;;;;;16.62;47.64;101012.50;5035149;28;19932;-58
2022/09/03 02:20:19;;;;;;;;;;;;;;;16.62;47.56;101012.50;5019028;28;19915;-58
2022/09/03 02:22:46;;;;;;;;;;;;;;;16.59;47.36;101002.19;5021883;28;20475;-58
2022/09/03 02:25:11;;;;;;;;;;;;;;;16.58;47.75;101005.09;5021998;28;19964;-58
2022/09/03 02:27:40;;;;;;;;;;;;;;;16.54;48.01;101004.66;5023600;28;19944;-58
2022/09/03 02:30:05;;;;;;;;;;;;;;;16.54;47.89;101011.88;5021914;28;19966;-58
2022/09/03 02:32:31;;;;;;;;;;;;;;;16.52;47.77;101012.09;5024507;28;19924;-58
2022/09/03 02:34:57;;;;;;;;;;;;;;;16.51;48.17;101006.94;5022564;28;19925;-58
2022/09/03 02:37:22;;;;;;;;;;;;;;;16.51;47.86;101017.66;5022259;28;19936;-58
2022/09/03 02:39:47;;;;;;;;;;;;;;;16.50;47.84;101008.78;5023214;28;19956;-58
2022/09/03 02:42:14;;;;;;;;;;;;;;;16.48;48.14;101012.69;5018771;28;19920;-57
2022/09/03 02:44:42;;;;;;;;;;;;;;;16.46;48.20;101017.44;5022051;28;20012;-58
2022/09/03 02:47:08;;;;;;;;;;;;;;;16.43;48.11;101024.03;5019877;28;20348;-58
2022/09/03 02:49:33;;;;;;;;;;;;;;;16.42;48.18;101022.38;5022868;28;19921;-58
2022/09/03 02:52:00;;;;;;;;;;;;;;;16.40;47.90;101014.53;5023332;28;20340;-58
2022/09/03 02:54:25;;;;;;;;;;;;;;;16.39;48.03;101012.06;5020516;28;19928;-57
2022/09/03 02:56:51;;;;;;;;;;;;;;;16.38;48.34;101005.88;5020387;28;19913;-58
2022/09/03 02:59:16;;;;;;;;;;;;;;;16.37;48.22;101008.75;5018357;28;20141;-56
2022/09/03 03:01:42;;;;;;;;;;;;;;;16.37;47.72;101008.75;5022369;28;19913;-57
2022/09/03 03:04:07;;;;;;;;;;;;;;;16.34;48.22;101015.38;5021879;28;19913;-57
2022/09/03 03:06:32;;;;;;;;;;;;;;;16.33;48.02;101008.34;5022335;28;20363;-58
2022/09/03 03:08:57;;;;;;;;;;;;;;;16.31;48.31;101001.56;5018304;28;19917;-57
2022/09/03 03:11:25;;;;;;;;;;;;;;;16.29;48.64;101004.44;5021192;28;19920;-58
2022/09/03 03:13:50;;;;;;;;;;;;;;;16.28;48.52;101004.63;5017463;28;19921;-57
2022/09/03 03:16:16;;;;;;;;;;;;;;;16.26;48.47;101012.06;5021371;28;19951;-57
2022/09/03 03:18:41;;;;;;;;;;;;;;;16.22;48.55;101006.28;5021628;28;19920;-58
2022/09/03 03:21:11;;;;;;;;;;;;;;;16.20;48.66;101008.34;5020478;28;19913;-57
2022/09/03 03:23:37;;;;;;;;;;;;;;;16.18;48.90;101007.69;5022961;28;19920;-58
2022/09/03 03:26:07;;;;;;;;;;;;;;;16.16;48.92;101006.25;5020364;28;19944;-58
2022/09/03 03:28:33;;;;;;;;;;;;;;;16.14;48.95;101005.63;5021291;28;20474;-58
2022/09/03 03:31:04;;;;;;;;;;;;;;;16.11;48.79;101001.50;5017650;28;19932;-58
2022/09/03 03:33:29;;;;;;;;;;;;;;;16.09;48.94;101003.56;5021260;28;19982;-58
2022/09/03 03:35:54;;;;;;;;;;;;;;;16.05;49.22;101013.84;5020052;28;20357;-56
2022/09/03 03:38:19;;;;;;;;;;;;;;;16.03;49.14;101013.25;5017992;28;19978;-59
2022/09/03 03:40:44;;;;;;;;;;;;;;;16.00;49.16;101010.97;5019010;28;19912;-58
2022/09/03 03:43:10;;;;;;;;;;;;;;;16.00;49.19;101023.53;5019211;28;19944;-58
2022/09/03 03:45:35;;;;;;;;;;;;;;;16.01;48.94;101027.88;5022533;28;19913;-58
2022/09/03 03:48:00;;;;;;;;;;;;;;;16.00;49.46;101018.19;5015064;28;20015;-57
2022/09/03 03:50:26;;;;;;;;;;;;;;;15.99;49.42;101021.88;5022276;28;19924;-57
2022/09/03 03:52:51;;;;;;;;;;;;;;;15.98;49.53;101020.22;5015100;28;19917;-57
2022/09/03 03:55:17;;;;;;;;;;;;;;;15.97;49.21;101023.94;5021203;28;19984;-56
2022/09/03 03:57:42;;;;;;;;;;;;;;;15.95;49.47;101020.63;5020351;28;19967;-57
2022/09/03 04:00:07;;;;;;;;;;;;;;;15.92;49.73;101018.38;5016872;28;19917;-58
2022/09/03 04:02:32;;;;;;;;;;;;;;;15.90;49.81;101015.88;5023944;28;20307;-58
2022/09/03 04:04:58;;;;;;;;;;;;;;;15.89;49.77;101016.06;5019852;28;20400;-58
2022/09/03 04:07:23;;;;;;;;;;;;;;;15.86;49.87;101003.06;5023347;28;19923;-58
2022/09/03 04:09:48;;;;;;;;;;;;;;;15.84;49.76;101010.50;5016640;28;20285;-56
2022/09/03 04:12:13;;;;;;;;;;;;;;;15.81;50.08;101011.72;5019768;28;19923;-58
2022/09/03 04:14:38;;;;;;;;;;;;;;;15.78;49.94;100999.56;5021656;28;19982;-58
2022/09/03 04:17:04;;;;;;;;;;;;;;;15.77;50.08;101005.13;5019445;28;19912;-58
2022/09/03 04:19:29;;;;;;;;;;;;;;;15.75;50.21;101005.31;5021419;28;19964;-58
2022/09/03 04:21:54;;;;;;;;;;;;;;;15.74;50.14;101002.84;5019257;28;20576;-58
2022/09/03 04:24:19;;;;;;;;;;;;;;;15.73;50.21;100999.34;5023188;28;20004;-57
2022/09/03 04:26:46;;;;;;;;;;;;;;;15.70;50.48;100997.06;5022712;28;21233;-58
2022/09/03 04:29:11;;;;;;;;;;;;;;;15.68;50.19;100998.28;5021792;28;19924;-57
2022/09/03 04:31:37;;;;;;;;;;;;;;;15.70;50.48;101004.28;5022309;28;19924;-57
2022/09/03 04:34:03;;;;;;;;;;;;;;;15.70;50.68;101001.59;5016837;28;19928;-57
2022/09/03 04:36:29;;;;;;;;;;;;;;;15.67;50.70;100992.13;5020988;28;19920;-58
2022/09/03 04:38:57;;;;;;;;;;;;;;;15.66;50.62;100995.81;5021919;28;19913;-58
2022/09/03 04:41:24;;;;;;;;;;;;;;;15.65;50.29;101004.88;5019355;28;19917;-58
2022/09/03 04:43:50;;;;;;;;;;;;;;;15.63;50.70;100995.41;5021615;28;20369;-58
2022/09/03 04:46:15;;;;;;;;;;;;;;;15.61;50.47;100998.28;5022409;28;19928;-58
2022/09/03 04:48:40;;;;;;;;;;;;;;;15.58;50.74;100993.28;5020764;28;19920;-58
2022/09/03 04:51:07;;;;;;;;;;;;;;;15.57;50.56;100996.97;5020092;28;19917;-56
2022/09/03 04:53:33;;;;;;;;;;;;;;;15.56;50.82;100994.50;5023126;28;20434;-58
2022/09/03 04:55:58;;;;;;;;;;;;;;;15.54;50.86;101008.06;5019399;28;20055;-58
2022/09/03 04:58:23;;;;;;;;;;;;;;;15.54;50.91;101012.59;5020828;28;20011;-58
2022/09/03 05:00:49;;;;;;;;;;;;;;;15.52;51.01;101010.13;5020259;28;19972;-58
2022/09/03 05:03:14;;;;;;;;;;;;;;;15.53;51.06;101005.59;5021951;28;19961;-58
2022/09/03 05:05:39;;;;;;;;;;;;;;;15.51;50.89;101008.47;5018840;28;19921;-58
2022/09/03 05:08:05;;;;;;;;;;;;;;;15.50;51.23;101010.31;5028841;28;19924;-57
2022/09/03 05:10:30;;;;;;;;;;;;;;;15.48;51.44;101004.34;5024080;28;20368;-57
2022/09/03 05:13:05;;;;;;;;;;;;;;;15.48;51.09;101008.88;5022724;28;20044;-58
2022/09/03 05:15:31;;;;;;;;;;;;;;;15.47;51.63;101012.56;5023875;28;19917;-58
2022/09/03 05:18:00;;;;;;;;;;;;;;;15.47;51.53;101013.41;5019910;28;19920;-57
2022/09/03 05:20:26;;;;;;;;;;;;;;;15.48;51.30;101007.03;5024643;28;19913;-58
2022/09/03 05:22:52;;;;;;;;;;;;;;;15.49;51.27;101005.16;5023257;28;19920;-57
2022/09/03 05:25:17;;;;;;;;;;;;;;;15.49;51.33;101010.53;5022809;28;19959;-58
2022/09/03 05:27:43;;;;;;;;;;;;;;;15.50;52.09;101004.13;5021308;28;19917;-58
2022/09/03 05:30:08;;;;;;;;;;;;;;;15.50;51.61;100998.78;5024096;28;19994;-57
2022/09/03 05:32:33;;;;;;;;;;;;;;;15.53;51.65;101010.94;5033581;28;20021;-58
2022/09/03 05:34:58;;;;;;;;;;;;;;;15.53;51.41;101000.25;5040087;28;19916;-58
2022/09/03 05:37:24;;;;;;;;;;;;;;;15.53;51.48;101002.91;5021567;28;19916;-58
2022/09/03 05:39:49;;;;;;;;;;;;;;;15.53;51.74;101008.28;5030959;28;19917;-56
2022/09/03 05:42:14;;;;;;;;;;;;;;;15.53;51.81;101005.59;5024241;28;20300;-58
2022/09/03 05:44:40;;;;;;;;;;;;;;;15.52;51.66;101009.28;5022142;28;19924;-57
2022/09/03 05:47:05;;;;;;;;;;;;;;;15.51;51.66;101011.16;5020419;28;19913;-57
2022/09/03 05:49:31;;;;;;;;;;;;;;;15.51;51.53;101008.47;5019617;28;20006;-57
2022/09/03 05:51:56;;;;;;;;;;;;;;;15.54;52.11;101007.25;5021854;28;19925;-58
2022/09/03 05:54:21;;;;;;;;;;;;;;;15.55;52.16;101009.72;5025156;28;19999;-58
2022/09/03 05:56:46;;;;;;;;;;;;;;;15.58;52.04;101008.50;5026138;28;19923;-57
2022/09/03 05:59:12;;;;;;;;;;;;;;;15.59;51.97;101007.50;5035958;28;20010;-58
2022/09/03 06:01:39;;;;;;;;;;;;;;;15.60;52.30;101011.81;5033964;28;19920;-58
2022/09/03 06:04:12;;;;;;;;;;;;;;;15.60;52.55;101018.00;5030858;28;19909;-58
2022/09/03 06:06:38;;;;;;;;;;;;;;;15.62;52.96;101012.47;5038753;28;20367;-57
2022/09/03 06:09:12;;;;;;;;;;;;;;;15.65;52.80;101012.91;5036946;28;19913;-58
2022/09/03 06:11:38;;;;;;;;;;;;;;;15.69;52.61;101011.47;5026455;28;19931;-58
2022/09/03 06:14:05;;;;;;;;;;;;;;;15.73;52.57;101007.38;5020066;28;19928;-56
2022/09/03 06:16:30;;;;;;;;;;;;;;;15.78;52.76;101004.91;5018810;28;20372;-57
2022/09/03 06:18:56;;;;;;;;;;;;;;;15.85;53.08;101004.09;5026643;28;20156;-57
2022/09/03 06:21:21;;;;;;;;;;;;;;;15.92;52.14;101010.34;5025594;28;20012;-57
2022/09/03 06:23:50;;;;;;;;;;;;;;;15.96;52.37;101014.25;5016348;28;19920;-57
2022/09/03 06:26:16;;;;;;;;;;;;;;;15.99;52.56;101016.53;5019783;28;19921;-56
2022/09/03 06:28:44;;;;;;;;;;;;;;;16.03;52.43;101023.94;5019185;28;19917;-57
2022/09/03 06:31:11;;;;;;;;;;;;;;;16.13;52.63;101028.09;5019152;28;19920;-56
2022/09/03 06:33:37;;;;;;;;;;;;;;;16.24;52.90;101019.47;5020966;28;21040;-58
2022/09/03 06:36:04;;;;;;;;;;;;;;;16.33;52.73;101019.06;5026159;28;20427;-58
2022/09/03 06:38:30;;;;;;;;;;;;;;;16.41;52.00;101018.03;5025120;28;19966;-58
2022/09/03 06:40:57;;;;;;;;;;;;;;;16.46;52.32;101017.44;5024608;28;19913;-58
2022/09/03 06:43:22;;;;;;;;;;;;;;;16.51;52.31;101017.66;5035419;28;19908;-58
2022/09/03 06:45:54;;;;;;;;;;;;;;;16.51;51.91;101020.34;5044135;28;19935;-58
2022/09/03 06:48:20;;;;;;;;;;;;;;;16.60;52.07;101019.09;5029949;28;19924;-58
2022/09/03 06:51:08;;;;;;;;;;;;;;;16.63;51.57;101024.88;5030078;28;19935;-59
2022/09/03 06:53:35;;;;;;;;;;;;;;;16.71;51.80;101015.81;5027640;28;19917;-58
2022/09/03 06:56:01;;;;;;;;;;;;;;;16.77;51.81;101019.53;5027535;28;19967;-57
2022/09/03 06:58:28;;;;;;;;;;;;;;;16.82;51.62;101023.28;5026531;28;19917;-59
2022/09/03 07:00:59;;;;;;;;;;;;;;;16.88;51.99;101017.06;5024878;28;19916;-59
2022/09/03 07:03:24;;;;;;;;;;;;;;;16.96;52.04;101029.44;5026345;28;19913;-58
2022/09/03 07:05:49;;;;;;;;;;;;;;;17.02;52.00;101023.22;5027215;28;19920;-59
2022/09/03 07:08:15;;;;;;;;;;;;;;;17.11;51.96;101026.53;5024512;28;19949;-58
2022/09/03 07:10:45;;;;;;;;;;;;;;;17.20;52.00;101020.75;5034777;28;20493;-59
2022/09/03 07:13:10;;;;;;;;;;;;;;;17.31;51.60;101022.78;5023245;28;19963;-59
2022/09/03 07:15:36;;;;;;;;;;;;;;;17.45;51.49;101018.19;5030255;28;19913;-58
2022/09/03 07:18:01;;;;;;;;;;;;;;;17.58;51.46;101028.06;5028395;28;19913;-58
2022/09/03 07:20:26;;;;;;;;;;;;;;;17.71;51.30;101030.75;5020426;28;19943;-59
2022/09/03 07:22:55;;;;;;;;;;;;;;;17.82;51.00;101032.75;5022109;28;19913;-59
2022/09/03 07:25:20;;;;;;;;;;;;;;;17.91;51.06;101033.34;5021982;28;19924;-58
2022/09/03 07:27:46;;;;;;;;;;;;;;;17.99;50.76;101019.66;5022481;28;19917;-59
2022/09/03 07:30:11;;;;;;;;;;;;;;;18.07;50.33;101022.09;5019190;28;19965;-58
2022/09/03 07:32:39;;;;;;;;;;;;;;;18.13;50.20;101028.47;5016269;28;19921;-58
2022/09/03 07:35:05;;;;;;;;;;;;;;;18.19;50.51;101027.59;5019553;28;19917;-57
2022/09/03 07:37:30;;;;;;;;;;;;;;;18.29;50.18;101024.47;5018403;28;19971;-57
2022/09/03 07:39:55;;;;;;;;;;;;;;;18.34;50.05;101027.31;5020832;28;19917;-58
2022/09/03 07:42:20;;;;;;;;;;;;;;;18.40;49.88;101021.88;5018712;28;19916;-58
2022/09/03 07:44:46;;;;;;;;;;;;;;;18.47;49.93;101022.66;5028639;28;20376;-59
2022/09/03 07:47:12;;;;;;;;;;;;;;;18.53;49.63;101031.75;5029056;28;20802;-58
2022/09/03 07:49:37;;;;;;;;;;;;;;;18.60;49.09;101026.31;5039314;28;19913;-59
2022/09/03 07:52:02;;;;;;;;;;;;;;;18.65;48.94;101034.56;5040302;28;20330;-57
2022/09/03 07:54:27;;;;;;;;;;;;;;;18.72;49.21;101035.34;5022003;28;19916;-57
2022/09/03 07:56:53;;;;;;;;;;;;;;;18.77;48.58;101030.94;5021397;28;19913;-58
2022/09/03 07:59:21;;;;;;;;;;;;;;;18.84;48.94;101033.59;5028464;28;20784;-58
2022/09/03 08:01:47;;;;;;;;;;;;;;;18.91;48.83;101030.84;5023558;28;19987;-59
2022/09/03 08:04:12;;;;;;;;;;;;;;;18.97;48.80;101028.09;5023721;28;20059;-58
2022/09/03 08:06:38;;;;;;;;;;;;;;;19.03;48.73;101032.56;5020307;28;20572;-58
2022/09/03 08:09:05;;;;;;;;;;;;;;;19.10;49.06;101027.16;5024681;28;19913;-56
2022/09/03 08:11:31;;;;;;;;;;;;;;;19.15;48.69;101035.38;5015262;28;19917;-58
2022/09/03 08:14:05;;;;;;;;;;;;;;;19.19;48.59;101031.19;5027384;28;19939;-59
2022/09/03 08:16:31;;;;;;;;;;;;;;;19.24;48.76;101031.34;5031870;28;20269;-58
2022/09/03 08:18:56;;;;;;;;;;;;;;;19.29;48.33;101039.56;5020806;28;19921;-58
2022/09/03 08:21:22;;;;;;;;;;;;;;;19.34;48.34;101034.34;5021822;28;19924;-58
2022/09/03 08:23:49;;;;;;;;;;;;;;;19.40;48.06;101038.84;5029388;28;20414;-59
2022/09/03 08:26:15;;;;;;;;;;;;;;;19.45;47.89;101036.31;5029178;28;20300;-56
2022/09/03 08:28:41;;;;;;;;;;;;;;;19.52;47.72;101046.19;5031812;28;19944;-56
2022/09/03 08:31:11;;;;;;;;;;;;;;;19.55;47.31;101048.44;5018056;28;19928;-55
2022/09/03 08:33:37;;;;;;;;;;;;;;;19.58;47.80;101056.91;5014349;28;20280;-55
2022/09/03 08:36:06;;;;;;;;;;;;;;;19.67;47.62;101057.44;5015404;28;20676;-56
2022/09/03 08:38:32;;;;;;;;;;;;;;;19.73;47.51;101060.06;5017521;28;19913;-56
2022/09/03 08:41:15;;;;;;;;;;;;;;;19.79;47.55;101050.25;5018349;28;19920;-55
2022/09/03 08:44:00;;;;;;;;;;;;;;;19.89;46.95;101053.22;5023209;28;19913;-57
2022/09/03 08:46:34;;;;;;;;;;;;;;;19.98;46.66;101054.56;4992222;28;19948;-55
2022/09/03 08:48:59;;;;;;;;;;;;;;;20.06;46.55;101054.25;5020332;28;20008;-55
2022/09/03 08:51:26;;;;;;;;;;;;;;;20.12;46.87;101052.50;5038228;28;20031;-55
2022/09/03 08:53:54;;;;;;;;;;;;;;;20.18;46.85;101053.47;5028809;28;19921;-55
2022/09/03 08:56:23;;;;;;;;;;;;;;;20.22;46.55;101054.66;5029394;28;20656;-56
2022/09/03 08:58:48;;;;;;;;;;;;;;;20.28;46.79;101051.06;5040514;28;19971;-55
2022/09/03 09:01:23;;;;;;;;;;;;;;;20.37;46.33;101057.75;5035257;28;19948;-58
2022/09/03 09:04:03;;;;;;;;;;;;;;;20.41;46.46;101048.19;5018381;28;20009;-57
2022/09/03 09:06:29;;;;;;;;;;;;;;;20.49;46.14;101055.94;5030435;28;19909;-58
2022/09/03 09:09:11;;;;;;;;;;;;;;;20.58;46.35;101056.44;5039451;28;19913;-56
2022/09/03 09:11:47;;;;;;;;;;;;;;;20.65;46.31;101057.16;5041055;28;19964;-57
2022/09/03 09:14:42;;;;;;;;;;;;;;;20.75;45.86;101052.00;5029487;28;19933;-57
2022/09/03 09:17:16;;;;;;;;;;;;;;;20.86;45.85;101053.09;4977143;28;19916;-57
2022/09/03 09:19:59;;;;;;;;;;;;;;;20.97;45.89;101058.50;5033194;28;19920;-58
2022/09/03 09:22:27;;;;;;;;;;;;;;;21.04;45.60;101053.78;5035907;28;19909;-57
2022/09/03 09:24:55;;;;;;;;;;;;;;;21.11;45.32;101050.19;5042115;28;19959;-58
2022/09/03 09:27:21;;;;;;;;;;;;;;;21.24;45.08;101055.38;5044165;28;19921;-58
2022/09/03 09:29:47;;;;;;;;;;;;;;;21.33;45.07;101053.94;5034966;28;19921;-58
2022/09/03 09:32:13;;;;;;;;;;;;;;;21.47;44.76;101054.53;5045664;28;19959;-58
2022/09/03 09:34:40;;;;;;;;;;;;;;;21.61;44.94;101042.38;5029084;28;19952;-57
2022/09/03 09:37:08;;;;;;;;;;;;;;;21.75;44.36;101048.34;5030088;28;20476;-56
2022/09/03 09:39:33;;;;;;;;;;;;;;;21.87;44.10;101047.25;5030936;28;19920;-58
2022/09/03 09:42:08;;;;;;;;;;;;;;;22.02;43.74;101049.44;5031738;28;19916;-56
2022/09/03 09:44:35;;;;;;;;;;;;;;;22.17;43.91;101049.75;5031421;28;19912;-58
2022/09/03 09:47:09;;;;;;;;;;;;;;;22.34;43.69;101052.50;5031122;28;19975;-59
2022/09/03 09:49:37;;;;;;;;;;;;;;;22.50;43.20;101043.56;5027439;28;19944;-58
2022/09/03 09:52:10;;;;;;;;;;;;;;;22.65;43.00;101051.16;5027661;28;19925;-58
2022/09/03 09:54:36;;;;;;;;;;;;;;;22.79;42.60;101046.22;5028619;28;20015;-58
2022/09/03 09:57:04;;;;;;;;;;;;;;;22.89;42.34;101056.44;5022027;28;19996;-59
2022/09/03 09:59:30;;;;;;;;;;;;;;;23.01;42.53;101049.84;5036540;28;19913;-59
2022/09/03 10:02:09;;;;;;;;;;;;;;;23.18;42.43;101050.66;5033865;28;19939;-58
2022/09/03 10:04:34;;;;;;;;;;;;;;;23.32;42.06;101053.00;5028407;28;19920;-58
2022/09/03 10:07:15;;;;;;;;;;;;;;;23.44;41.49;101046.44;5032755;28;19913;-59
2022/09/03 10:09:40;;;;;;;;;;;;;;;23.63;41.74;101051.56;5044268;28;19915;-59
2022/09/03 10:12:23;;;;;;;;;;;;;;;23.78;40.86;101051.75;5041269;28;19912;-59
2022/09/03 10:14:58;;;;;;;;;;;;;;;23.89;40.64;101049.97;5026413;28;19970;-58
2022/09/03 10:17:42;;;;;;;;;;;;;;;23.95;40.21;101038.09;5027575;28;19924;-59
2022/09/03 10:20:31;;;;;;;;;;;;;;;24.04;39.89;101051.00;5031059;28;19915;-58
2022/09/03 10:22:59;;;;;;;;;;;;;;;24.09;39.86;101042.91;5020954;28;19925;-59
2022/09/03 10:25:27;;;;;;;;;;;;;;;24.17;39.72;101038.06;5017994;28;19971;-58
2022/09/03 10:27:53;;;;;;;;;;;;;;;24.31;39.71;101042.88;5027087;28;19955;-59
2022/09/03 10:30:19;;;;;;;;;;;;;;;24.35;39.29;101032.34;5029644;28;20320;-59
2022/09/03 10:32:55;;;;;;;;;;;;;;;24.40;38.88;101035.09;5033146;28;19920;-59
2022/09/03 10:35:28;;;;;;;;;;;;;;;24.51;38.69;101041.41;5030077;28;20400;-58
2022/09/03 10:38:19;;;;;;;;;;;;;;;24.61;38.92;101028.75;5031400;28;19940;-59
2022/09/03 10:41:05;;;;;;;;;;;;;;;24.75;38.36;101041.91;5025468;28;19909;-59
2022/09/03 10:43:31;;;;;;;;;;;;;;;24.78;38.15;101044.09;5038817;28;19917;-58
2022/09/03 10:46:04;;;;;;;;;;;;;;;24.83;38.05;101044.13;5028339;28;19925;-58
2022/09/03 10:48:31;;;;;;;;;;;;;;;24.85;37.69;101033.81;5031083;28;19913;-59
2022/09/03 10:51:01;;;;;;;;;;;;;;;24.89;37.71;101033.06;5041848;28;19912;-58
2022/09/03 10:53:38;;;;;;;;;;;;;;;24.99;37.44;101035.88;5045894;28;19916;-58
2022/09/03 10:56:16;;;;;;;;;;;;;;;25.11;37.77;101029.41;5038509;28;19920;-58
2022/09/03 10:58:47;;;;;;;;;;;;;;;25.18;37.30;101030.00;5037080;28;19921;-59
2022/09/03 11:01:12;;;;;;;;;;;;;;;25.24;36.92;101031.66;5034317;28;19909;-58
2022/09/03 11:03:37;;;;;;;;;;;;;;;25.26;36.72;101040.38;5038800;28;19940;-59
2022/09/03 11:06:13;;;;;;;;;;;;;;;25.19;36.40;101032.47;5033958;28;20008;-60
2022/09/03 11:08:55;;;;;;;;;;;;;;;25.11;36.48;101024.78;5029933;28;19917;-59
2022/09/03 11:11:27;;;;;;;;;;;;;;;25.14;36.57;101032.41;5045709;28;20546;-58
2022/09/03 11:14:00;;;;;;;;;;;;;;;25.05;36.13;101019.59;5030745;28;19912;-59
2022/09/03 11:16:29;;;;;;;;;;;;;;;25.08;36.43;101046.22;5027807;28;19913;-59
2022/09/03 11:18:59;;;;;;;;;;;;;;;24.99;36.26;101032.31;5027128;28;19952;-59
2022/09/03 11:21:25;;;;;;;;;;;;;;;25.00;36.74;101026.63;5026102;28;20468;-59
2022/09/03 11:23:53;;;;;;;;;;;;;;;25.11;36.53;101026.69;5023275;28;19916;-58
2022/09/03 11:26:21;;;;;;;;;;;;;;;25.18;36.75;101032.72;5021545;28;20129;-58
2022/09/03 11:29:05;;;;;;;;;;;;;;;25.16;36.16;101022.13;5030440;28;20386;-57
2022/09/03 11:31:43;;;;;;;;;;;;;;;25.22;36.41;101031.13;5019108;28;20003;-57
2022/09/03 11:34:12;;;;;;;;;;;;;;;25.32;36.27;101021.09;5020316;28;19952;-58
2022/09/03 11:36:38;;;;;;;;;;;;;;;25.41;36.13;101021.41;5020196;28;20520;-58
2022/09/03 11:39:17;;;;;;;;;;;;;;;25.44;36.44;101022.78;5027795;28;20523;-57
2022/09/03 11:41:43;;;;;;;;;;;;;;;25.44;35.87;101018.16;5031374;28;19915;-57
2022/09/03 11:44:18;;;;;;;;;;;;;;;25.47;36.06;101016.84;5016953;28;19913;-58
2022/09/03 11:46:57;;;;;;;;;;;;;;;25.48;36.29;101010.31;5038414;28;19909;-57
2022/09/03 11:49:32;;;;;;;;;;;;;;;25.45;35.99;101008.94;5026581;28;19912;-58
2022/09/03 11:52:01;;;;;;;;;;;;;;;25.47;36.29;101014.94;5039167;28;19935;-58
2022/09/03 11:54:26;;;;;;;;;;;;;;;25.42;36.06;101014.88;5033549;28;20356;-58
2022/09/03 11:57:10;;;;;;;;;;;;;;;25.35;36.22;101014.31;5031025;28;19913;-58
2022/09/03 11:59:36;;;;;;;;;;;;;;;25.34;36.10;101018.13;5022465;28;19913;-57
2022/09/03 12:02:05;;;;;;;;;;;;;;;25.40;36.23;101021.69;5034652;28;19936;-58
2022/09/03 12:04:43;;;;;;;;;;;;;;;25.41;36.17;101018.69;5030719;28;19916;-57
2022/09/03 12:07:26;;;;;;;;;;;;;;;25.49;36.10;101023.66;5026935;28;19917;-57
2022/09/03 12:10:01;;;;;;;;;;;;;;;25.51;36.17;101024.19;5020016;28;20444;-57
2022/09/03 12:12:47;;;;;;;;;;;;;;;25.57;36.13;101022.31;5030354;28;19913;-58
2022/09/03 12:15:24;;;;;;;;;;;;;;;25.58;35.86;101018.50;5037110;28;20049;-58
2022/09/03 12:18:18;;;;;;;;;;;;;;;25.61;35.78;101021.50;5038782;28;20471;-58
2022/09/03 12:20:44;;;;;;;;;;;;;;;25.67;35.80;101025.09;5038230;28;19908;-58
2022/09/03 12:23:10;;;;;;;;;;;;;;;25.71;36.29;101022.66;5028287;28;20323;-57
2022/09/03 12:25:41;;;;;;;;;;;;;;;25.68;36.07;101017.75;5025698;28;20437;-58
2022/09/03 12:28:10;;;;;;;;;;;;;;;25.68;35.56;101020.47;5027639;28;19996;-57
2022/09/03 12:30:36;;;;;;;;;;;;;;;25.76;35.95;101023.53;5032935;28;19916;-57
2022/09/03 12:33:03;;;;;;;;;;;;;;;25.82;36.01;101027.88;5024102;28;20054;-58
2022/09/03 12:35:28;;;;;;;;;;;;;;;25.80;35.66;101021.06;5029773;28;19913;-58
2022/09/03 12:37:54;;;;;;;;;;;;;;;25.85;35.64;101015.66;5023612;28;19951;-57
2022/09/03 12:40:21;;;;;;;;;;;;;;;25.85;35.58;101011.03;5031142;28;20280;-58
2022/09/03 12:42:46;;;;;;;;;;;;;;;25.89;35.49;101014.84;5025363;28;19963;-57
2022/09/03 12:45:14;;;;;;;;;;;;;;;25.92;34.99;101019.75;5031148;28;19917;-58
2022/09/03 12:47:40;;;;;;;;;;;;;;;25.94;35.36;101022.19;5040294;28;19992;-58